Time;durP1;ratioP1;P1;durP2;ratioP2;P2;SDS_P1;SDS_P2;PMS_P1;PMS_P2;Temp;Humidity;BMP_temperature;BMP_pressure;BME280_temperature;BME280_humidity;BME280_pressure;Samples;Min_cycle;Max_cycle;Signal;HPM_P1;HPM_P2
2022/10/28 00:00:11;;;;;;;52.50;25.48;;;;;;;;;;4917341;29;20055;-69
2022/10/28 00:03:16;;;;;;;55.13;23.77;;;;;;;;;;4917071;29;20487;-69
2022/10/28 00:06:21;;;;;;;55.92;23.95;;;;;;;;;;4917112;29;20055;-69
2022/10/28 00:09:26;;;;;;;51.90;24.63;;;;;;;;;;4916803;29;20051;-69
2022/10/28 00:12:30;;;;;;;56.38;25.23;;;;;;;;;;4916875;29;20059;-69
2022/10/28 00:15:34;;;;;;;56.35;23.75;;;;;;;;;;4916703;29;20047;-69
2022/10/28 00:18:39;;;;;;;46.83;23.15;;;;;;;;;;4916976;29;20051;-69
2022/10/28 00:21:43;;;;;;;62.72;27.02;;;;;;;;;;4916597;29;20043;-69
2022/10/28 00:24:48;;;;;;;52.53;24.52;;;;;;;;;;4916922;29;20488;-69
2022/10/28 00:27:52;;;;;;;50.72;23.45;;;;;;;;;;4917081;29;20105;-69
2022/10/28 00:31:02;;;;;;;46.75;22.63;;;;;;;;;;4916509;29;20055;-69
2022/10/28 00:34:08;;;;;;;50.50;24.10;;;;;;;;;;4916432;29;20063;-68
2022/10/28 00:37:13;;;;;;;38.20;21.63;;;;;;;;;;4916582;29;20063;-68
2022/10/28 00:40:17;;;;;;;54.70;22.65;;;;;;;;;;4916703;29;20408;-68
2022/10/28 00:43:33;;;;;;;42.08;21.80;;;;;;;;;;4916527;29;20047;-69
2022/10/28 00:46:42;;;;;;;49.80;21.98;;;;;;;;;;4916531;29;20117;-69
2022/10/28 00:49:47;;;;;;;42.75;21.13;;;;;;;;;;4916075;29;20055;-69
2022/10/28 00:52:55;;;;;;;41.58;20.50;;;;;;;;;;4915771;29;20051;-69
2022/10/28 00:56:01;;;;;;;33.70;19.52;;;;;;;;;;4915238;29;20047;-70
2022/10/28 00:59:08;;;;;;;46.63;19.30;;;;;;;;;;4915121;29;20051;-69
2022/10/28 01:02:12;;;;;;;41.58;18.75;;;;;;;;;;4916090;29;20047;-70
2022/10/28 01:05:19;;;;;;;40.67;18.60;;;;;;;;;;4916116;29;20530;-69
2022/10/28 01:08:23;;;;;;;42.92;18.58;;;;;;;;;;4915804;29;20400;-70
2022/10/28 01:11:47;;;;;;;40.00;17.85;;;;;;;;;;4916224;29;20055;-70
2022/10/28 01:15:10;;;;;;;38.67;18.65;;;;;;;;;;4915671;29;20407;-69
2022/10/28 01:18:37;;;;;;;41.58;20.08;;;;;;;;;;4915688;29;20236;-70
2022/10/28 01:21:58;;;;;;;40.20;18.38;;;;;;;;;;4915428;29;20055;-70
2022/10/28 01:25:02;;;;;;;47.78;18.45;;;;;;;;;;4915600;29;20043;-70
2022/10/28 01:28:07;;;;;;;38.28;17.95;;;;;;;;;;4914841;29;20055;-70
2022/10/28 01:31:26;;;;;;;37.65;17.58;;;;;;;;;;4915614;29;20051;-70
2022/10/28 01:34:39;;;;;;;36.10;17.73;;;;;;;;;;4915567;29;20063;-69
2022/10/28 01:38:07;;;;;;;37.22;16.33;;;;;;;;;;4914832;29;20056;-69
2022/10/28 01:41:14;;;;;;;35.78;16.95;;;;;;;;;;4914859;29;20051;-70
2022/10/28 01:44:28;;;;;;;43.22;17.65;;;;;;;;;;4915529;29;20056;-70
2022/10/28 01:47:39;;;;;;;31.23;15.93;;;;;;;;;;4915275;29;20055;-69
2022/10/28 01:50:46;;;;;;;32.08;16.40;;;;;;;;;;4915268;29;20516;-70
2022/10/28 01:53:52;;;;;;;34.53;15.90;;;;;;;;;;4915060;29;20051;-70
2022/10/28 01:56:57;;;;;;;44.10;17.45;;;;;;;;;;4915424;29;20412;-70
2022/10/28 02:00:02;;;;;;;34.05;15.50;;;;;;;;;;4915256;29;20048;-69
2022/10/28 02:03:16;;;;;;;39.25;16.88;;;;;;;;;;4914484;29;20051;-69
2022/10/28 02:06:22;;;;;;;38.05;16.55;;;;;;;;;;4915308;29;20063;-69
2022/10/28 02:09:26;;;;;;;30.77;14.95;;;;;;;;;;4915129;29;20051;-69
2022/10/28 02:12:35;;;;;;;35.20;15.30;;;;;;;;;;4915059;29;20055;-70
2022/10/28 02:15:47;;;;;;;38.92;15.90;;;;;;;;;;4915640;29;20592;-70
2022/10/28 02:19:00;;;;;;;33.47;15.57;;;;;;;;;;4915383;29;20039;-69
2022/10/28 02:22:22;;;;;;;31.67;15.32;;;;;;;;;;4914210;29;20047;-69
2022/10/28 02:25:33;;;;;;;39.72;15.73;;;;;;;;;;4914885;29;20404;-70
2022/10/28 02:28:43;;;;;;;40.03;14.85;;;;;;;;;;4917522;29;20055;-69
2022/10/28 02:31:50;;;;;;;37.10;15.48;;;;;;;;;;4918592;29;20047;-69
2022/10/28 02:34:57;;;;;;;43.13;15.10;;;;;;;;;;4918615;29;20103;-70
2022/10/28 02:38:05;;;;;;;33.67;13.85;;;;;;;;;;4918855;29;20392;-70
2022/10/28 02:41:20;;;;;;;42.28;15.60;;;;;;;;;;4918575;29;20046;-70
2022/10/28 02:44:32;;;;;;;39.75;15.77;;;;;;;;;;4918294;29;20151;-70
2022/10/28 02:47:39;;;;;;;39.90;14.63;;;;;;;;;;4918394;29;20051;-70
2022/10/28 02:50:45;;;;;;;31.63;14.38;;;;;;;;;;4917957;29;20062;-70
2022/10/28 02:53:57;;;;;;;29.00;13.95;;;;;;;;;;4917867;29;20055;-69
2022/10/28 02:57:14;;;;;;;31.50;13.82;;;;;;;;;;4918235;29;20063;-69
2022/10/28 03:00:21;;;;;;;38.50;13.80;;;;;;;;;;4917423;29;20074;-69
2022/10/28 03:03:25;;;;;;;33.92;13.50;;;;;;;;;;4918045;29;20052;-70
2022/10/28 03:06:33;;;;;;;34.95;12.90;;;;;;;;;;4918243;29;20055;-69
2022/10/28 03:09:37;;;;;;;30.83;13.63;;;;;;;;;;4917000;29;20460;-70
2022/10/28 03:12:41;;;;;;;31.70;13.25;;;;;;;;;;4918047;29;20055;-70
2022/10/28 03:15:46;;;;;;;27.55;13.95;;;;;;;;;;4917973;29;20050;-70
2022/10/28 03:18:50;;;;;;;36.38;14.52;;;;;;;;;;4917811;29;20043;-70
2022/10/28 03:21:54;;;;;;;36.17;13.15;;;;;;;;;;4917688;29;20047;-70
2022/10/28 03:24:59;;;;;;;27.00;13.45;;;;;;;;;;4917671;29;20047;-70
2022/10/28 03:28:03;;;;;;;42.08;14.27;;;;;;;;;;4917671;29;20532;-70
2022/10/28 03:31:08;;;;;;;37.38;14.35;;;;;;;;;;4917587;29;20047;-70
2022/10/28 03:34:12;;;;;;;37.58;14.00;;;;;;;;;;4917419;29;20047;-70
2022/10/28 03:37:16;;;;;;;31.98;14.02;;;;;;;;;;4917907;29;20527;-68
2022/10/28 03:40:21;;;;;;;39.38;14.85;;;;;;;;;;4916687;29;20047;-71
2022/10/28 03:43:25;;;;;;;26.65;13.77;;;;;;;;;;4917400;29;20051;-70
2022/10/28 03:46:29;;;;;;;34.70;13.98;;;;;;;;;;4917506;29;20511;-70
2022/10/28 03:49:34;;;;;;;32.90;15.20;;;;;;;;;;4917114;29;20047;-70
2022/10/28 03:52:38;;;;;;;40.88;14.88;;;;;;;;;;4917345;29;20051;-70
2022/10/28 03:55:42;;;;;;;36.53;15.15;;;;;;;;;;4917000;29;20047;-70
2022/10/28 03:58:47;;;;;;;37.13;14.70;;;;;;;;;;4917072;29;20047;-70
2022/10/28 04:01:52;;;;;;;38.35;16.30;;;;;;;;;;4917028;29;20047;-70
2022/10/28 04:04:56;;;;;;;42.28;16.75;;;;;;;;;;4916314;29;20051;-70
2022/10/28 04:08:00;;;;;;;41.42;16.15;;;;;;;;;;4917281;29;20051;-68
2022/10/28 04:11:07;;;;;;;39.35;18.08;;;;;;;;;;4916901;29;20056;-70
2022/10/28 04:14:12;;;;;;;38.03;15.98;;;;;;;;;;4916821;29;20428;-70
2022/10/28 04:17:16;;;;;;;38.50;15.70;;;;;;;;;;4915967;29;20400;-70
2022/10/28 04:20:20;;;;;;;43.35;16.45;;;;;;;;;;4916592;29;20067;-70
2022/10/28 04:23:24;;;;;;;42.00;17.08;;;;;;;;;;4916842;29;20047;-70
2022/10/28 04:26:30;;;;;;;33.50;15.63;;;;;;;;;;4916776;29;20059;-70
2022/10/28 04:29:35;;;;;;;35.97;17.05;;;;;;;;;;4916488;29;20047;-70
2022/10/28 04:32:41;;;;;;;45.28;16.67;;;;;;;;;;4916266;29;20499;-70
2022/10/28 04:35:45;;;;;;;48.30;17.27;;;;;;;;;;4916473;29;20048;-70
2022/10/28 04:38:50;;;;;;;44.80;17.23;;;;;;;;;;4916666;29;20051;-70
2022/10/28 04:41:54;;;;;;;53.10;16.95;;;;;;;;;;4916262;29;20043;-70
2022/10/28 04:44:59;;;;;;;42.40;17.02;;;;;;;;;;4916063;29;20388;-69
2022/10/28 04:48:03;;;;;;;41.30;16.85;;;;;;;;;;4915956;29;20059;-68
2022/10/28 04:51:07;;;;;;;42.40;16.20;;;;;;;;;;4915495;29;20047;-69
2022/10/28 04:54:12;;;;;;;36.83;15.40;;;;;;;;;;4915549;29;20059;-69
2022/10/28 04:57:16;;;;;;;49.92;16.70;;;;;;;;;;4916048;29;20497;-69
2022/10/28 05:00:20;;;;;;;33.10;15.48;;;;;;;;;;4916128;29;20114;-69
2022/10/28 05:03:25;;;;;;;31.00;16.20;;;;;;;;;;4916132;29;20067;-69
2022/10/28 05:06:29;;;;;;;37.72;17.40;;;;;;;;;;4916420;29;20051;-69
2022/10/28 05:09:33;;;;;;;43.85;16.02;;;;;;;;;;4916107;29;20380;-70
2022/10/28 05:12:41;;;;;;;43.38;16.17;;;;;;;;;;4916244;29;20503;-70
2022/10/28 05:15:49;;;;;;;40.05;16.85;;;;;;;;;;4916067;29;20593;-71
2022/10/28 05:18:53;;;;;;;35.88;15.60;;;;;;;;;;4915693;29;20047;-70
2022/10/28 05:21:57;;;;;;;48.08;16.60;;;;;;;;;;4914450;29;20043;-70
2022/10/28 05:25:02;;;;;;;39.92;16.85;;;;;;;;;;4915107;29;20372;-70
2022/10/28 05:28:06;;;;;;;51.38;17.52;;;;;;;;;;4915512;29;20075;-70
2022/10/28 05:31:10;;;;;;;43.63;16.83;;;;;;;;;;4915374;29;20043;-70
2022/10/28 05:34:15;;;;;;;36.53;16.15;;;;;;;;;;4914816;29;20538;-74
2022/10/28 05:37:19;;;;;;;44.17;16.67;;;;;;;;;;4914482;29;20635;-74
2022/10/28 05:40:23;;;;;;;50.92;17.10;;;;;;;;;;4914474;29;20051;-73
2022/10/28 05:43:28;;;;;;;41.28;16.77;;;;;;;;;;4915522;29;20051;-74
2022/10/28 05:46:32;;;;;;;42.22;16.40;;;;;;;;;;4915513;29;20054;-73
2022/10/28 05:49:36;;;;;;;56.13;17.15;;;;;;;;;;4915673;29;20063;-74
2022/10/28 05:52:45;;;;;;;45.08;16.08;;;;;;;;;;4915204;29;20055;-72
2022/10/28 05:55:49;;;;;;;38.15;15.20;;;;;;;;;;4916203;29;20499;-75
2022/10/28 05:58:53;;;;;;;44.05;16.50;;;;;;;;;;4914336;29;20039;-73
2022/10/28 06:01:58;;;;;;;38.10;16.40;;;;;;;;;;4914554;29;20047;-73
2022/10/28 06:05:02;;;;;;;61.90;22.58;;;;;;;;;;4919702;29;20043;-74
2022/10/28 06:08:07;;;;;;;48.08;22.25;;;;;;;;;;4919592;29;20403;-74
2022/10/28 06:11:11;;;;;;;49.30;20.27;;;;;;;;;;4919488;29;20043;-73
2022/10/28 06:14:15;;;;;;;55.22;19.67;;;;;;;;;;4919503;29;20063;-75
2022/10/28 06:17:19;;;;;;;73.00;19.90;;;;;;;;;;4919788;29;20400;-79
2022/10/28 06:20:24;;;;;;;65.93;19.08;;;;;;;;;;4921346;29;20055;-72
2022/10/28 06:23:29;;;;;;;73.28;19.25;;;;;;;;;;4919159;29;20079;-77
2022/10/28 06:26:33;;;;;;;42.45;17.33;;;;;;;;;;4920360;29;20035;-75
2022/10/28 06:29:38;;;;;;;61.33;17.38;;;;;;;;;;4920730;29;20511;-72
2022/10/28 06:32:45;;;;;;;49.30;17.27;;;;;;;;;;4922269;29;20389;-73
2022/10/28 06:35:49;;;;;;;63.88;18.65;;;;;;;;;;4919638;29;20052;-74
2022/10/28 06:38:53;;;;;;;50.05;18.80;;;;;;;;;;4918374;29;20055;-74
2022/10/28 06:41:58;;;;;;;302.08;37.67;;;;;;;;;;4918746;29;20043;-74
2022/10/28 06:45:02;;;;;;;63.78;21.52;;;;;;;;;;4918326;29;20055;-72
2022/10/28 06:48:06;;;;;;;56.08;23.35;;;;;;;;;;4918509;29;20059;-72
2022/10/28 06:51:12;;;;;;;56.53;21.67;;;;;;;;;;4918062;29;20392;-74
2022/10/28 06:54:17;;;;;;;51.17;19.10;;;;;;;;;;4918246;29;20055;-75
2022/10/28 06:57:21;;;;;;;60.90;18.65;;;;;;;;;;4917324;29;20047;-73
2022/10/28 07:00:25;;;;;;;48.95;20.08;;;;;;;;;;4918321;29;20055;-73
2022/10/28 07:03:31;;;;;;;59.20;20.42;;;;;;;;;;4919092;29;20055;-72
2022/10/28 07:06:35;;;;;;;53.85;19.42;;;;;;;;;;4918288;29;20117;-73
2022/10/28 07:09:41;;;;;;;53.65;19.65;;;;;;;;;;4918469;29;20043;-78
2022/10/28 07:12:46;;;;;;;64.20;21.25;;;;;;;;;;4920408;29;20051;-72
2022/10/28 07:15:51;;;;;;;39.05;18.60;;;;;;;;;;4918111;29;20051;-73
2022/10/28 07:18:56;;;;;;;40.10;20.02;;;;;;;;;;4921388;29;20043;-73
2022/10/28 07:22:00;;;;;;;41.55;19.80;;;;;;;;;;4918738;29;20051;-78
2022/10/28 07:25:05;;;;;;;42.45;19.77;;;;;;;;;;4906532;29;20047;-77
2022/10/28 07:28:09;;;;;;;51.20;23.75;;;;;;;;;;4917979;29;20064;-78
2022/10/28 07:31:14;;;;;;;47.63;24.25;;;;;;;;;;4918053;29;20400;-73
2022/10/28 07:34:19;;;;;;;58.58;25.35;;;;;;;;;;4917668;29;20063;-79
2022/10/28 07:37:23;;;;;;;51.72;24.42;;;;;;;;;;4918370;29;20050;-74
2022/10/28 07:40:28;;;;;;;48.03;25.98;;;;;;;;;;4918378;29;20464;-73
2022/10/28 07:43:34;;;;;;;52.70;28.73;;;;;;;;;;4919068;29;20050;-79
2022/10/28 07:46:40;;;;;;;55.33;27.80;;;;;;;;;;4918705;29;20051;-74
2022/10/28 07:49:44;;;;;;;57.00;28.00;;;;;;;;;;4918655;29;20051;-72
2022/10/28 07:52:49;;;;;;;50.80;28.23;;;;;;;;;;4919415;29;20047;-79
2022/10/28 07:55:57;;;;;;;54.42;29.08;;;;;;;;;;4921216;29;20396;-76
2022/10/28 07:59:02;;;;;;;58.63;29.98;;;;;;;;;;4918812;29;20051;-73
2022/10/28 08:02:06;;;;;;;60.47;29.40;;;;;;;;;;4918287;29;20039;-78
2022/10/28 08:05:10;;;;;;;64.00;30.35;;;;;;;;;;4918201;29;20047;-78
2022/10/28 08:08:15;;;;;;;55.35;29.75;;;;;;;;;;4917840;29;20051;-76
2022/10/28 08:11:23;;;;;;;56.92;27.30;;;;;;;;;;4917138;29;20043;-71
2022/10/28 08:14:27;;;;;;;50.95;28.02;;;;;;;;;;4918081;29;20062;-72
2022/10/28 08:17:31;;;;;;;79.95;31.65;;;;;;;;;;4918094;29;20518;-79
2022/10/28 08:20:35;;;;;;;67.55;30.73;;;;;;;;;;4918571;29;20048;-77
2022/10/28 08:23:40;;;;;;;48.30;27.35;;;;;;;;;;4919041;29;20567;-76
2022/10/28 08:26:44;;;;;;;84.97;34.78;;;;;;;;;;4917799;29;20192;-78
2022/10/28 08:29:49;;;;;;;69.15;32.78;;;;;;;;;;4917172;29;20051;-78
2022/10/28 08:32:54;;;;;;;59.20;30.35;;;;;;;;;;4915910;29;20404;-70
2022/10/28 08:35:59;;;;;;;52.47;27.00;;;;;;;;;;4916744;29;20407;-72
2022/10/28 08:39:04;;;;;;;48.65;23.52;;;;;;;;;;4916286;29;20051;-73
2022/10/28 08:42:08;;;;;;;44.13;21.60;;;;;;;;;;4915997;29;20066;-69
2022/10/28 08:45:12;;;;;;;48.50;20.55;;;;;;;;;;4916554;29;20051;-73
2022/10/28 08:48:30;;;;;;;55.85;18.50;;;;;;;;;;4916401;29;20051;-78
2022/10/28 08:51:38;;;;;;;55.33;19.08;;;;;;;;;;4916402;29;20047;-76
2022/10/28 08:54:46;;;;;;;49.45;18.52;;;;;;;;;;4916171;29;20059;-76
2022/10/28 08:57:59;;;;;;;36.92;17.33;;;;;;;;;;4914861;29;20039;-73
2022/10/28 09:01:04;;;;;;;42.20;17.35;;;;;;;;;;4915157;29;20051;-74
2022/10/28 09:04:23;;;;;;;37.35;15.30;;;;;;;;;;4916069;29;20051;-74
2022/10/28 09:07:28;;;;;;;40.85;16.55;;;;;;;;;;4916310;29;20055;-74
2022/10/28 09:10:42;;;;;;;48.17;16.75;;;;;;;;;;4914824;29;20043;-74
2022/10/28 09:13:55;;;;;;;30.23;13.60;;;;;;;;;;4915001;29;20059;-71
2022/10/28 09:17:06;;;;;;;33.05;14.40;;;;;;;;;;4918527;29;20523;-80
2022/10/28 09:20:18;;;;;;;27.83;13.93;;;;;;;;;;4917477;29;20043;-76
2022/10/28 09:23:25;;;;;;;34.50;13.90;;;;;;;;;;4914937;29;20629;-71
2022/10/28 09:26:48;;;;;;;28.95;12.45;;;;;;;;;;4916280;29;20051;-72
2022/10/28 09:30:01;;;;;;;29.40;10.75;;;;;;;;;;4918715;29;20047;-75
2022/10/28 09:33:08;;;;;;;31.13;10.68;;;;;;;;;;4918832;29;20052;-75
2022/10/28 09:36:16;;;;;;;35.70;14.75;;;;;;;;;;4916368;29;20055;-75
2022/10/28 09:39:23;;;;;;;28.02;10.88;;;;;;;;;;4917007;29;20043;-79
2022/10/28 09:42:30;;;;;;;33.10;10.68;;;;;;;;;;4916004;29;20114;-77
2022/10/28 09:45:36;;;;;;;40.20;10.20;;;;;;;;;;4918230;29;20051;-80
2022/10/28 09:48:46;;;;;;;27.27;8.93;;;;;;;;;;4915414;29;20067;-75
2022/10/28 09:51:52;;;;;;;30.38;8.38;;;;;;;;;;4919027;29;20035;-79
2022/10/28 09:54:57;;;;;;;25.67;8.93;;;;;;;;;;4917331;29;20055;-78
2022/10/28 09:58:02;;;;;;;23.02;8.00;;;;;;;;;;4915716;29;20047;-71
2022/10/28 10:01:06;;;;;;;22.92;8.95;;;;;;;;;;4915925;29;20043;-78
2022/10/28 10:04:19;;;;;;;27.45;8.50;;;;;;;;;;4915414;29;20396;-77
2022/10/28 10:07:38;;;;;;;30.20;7.70;;;;;;;;;;4914952;29;20066;-75
2022/10/28 10:10:47;;;;;;;16.75;7.50;;;;;;;;;;4917314;29;20047;-79
2022/10/28 10:13:52;;;;;;;18.33;6.68;;;;;;;;;;4915348;29;20055;-77
2022/10/28 10:16:58;;;;;;;18.75;6.03;;;;;;;;;;4916511;29;20047;-74
2022/10/28 10:20:10;;;;;;;18.30;6.63;;;;;;;;;;4916235;29;20432;-77
2022/10/28 10:23:27;;;;;;;24.10;6.00;;;;;;;;;;4915817;29;20060;-79
2022/10/28 10:26:32;;;;;;;18.63;5.80;;;;;;;;;;4916412;29;20480;-77
2022/10/28 10:29:37;;;;;;;18.27;6.30;;;;;;;;;;4914184;29;20511;-73
2022/10/28 10:32:46;;;;;;;35.15;9.43;;;;;;;;;;4916068;29;20090;-77
2022/10/28 10:36:14;;;;;;;20.98;7.35;;;;;;;;;;4917042;29;20051;-75
2022/10/28 10:39:25;;;;;;;15.18;6.47;;;;;;;;;;4915002;29;20055;-78
2022/10/28 10:42:29;;;;;;;;;;;;;;;;;;4917079;29;20609;-78
2022/10/28 10:45:33;;;;;;;20.85;7.53;;;;;;;;;;4915677;29;19984;-78
2022/10/28 10:48:37;;;;;;;28.58;7.68;;;;;;;;;;4917408;29;20055;-76
2022/10/28 10:51:52;;;;;;;20.88;7.82;;;;;;;;;;4920433;29;20055;-79
2022/10/28 10:55:05;;;;;;;23.23;7.90;;;;;;;;;;4922673;29;20054;-79
2022/10/28 10:58:17;;;;;;;27.23;8.77;;;;;;;;;;4919368;29;20518;-74
2022/10/28 11:01:27;;;;;;;29.35;8.85;;;;;;;;;;4919419;29;20055;-77
2022/10/28 11:04:35;;;;;;;31.90;8.52;;;;;;;;;;4918619;29;20499;-77
2022/10/28 11:07:47;;;;;;;24.95;8.45;;;;;;;;;;4918186;29;20048;-79
2022/10/28 11:11:02;;;;;;;21.50;8.57;;;;;;;;;;4917649;29;20196;-75
2022/10/28 11:14:12;;;;;;;17.40;8.15;;;;;;;;;;4919174;29;20059;-76
2022/10/28 11:17:27;;;;;;;26.05;8.55;;;;;;;;;;4919056;29;20047;-78
2022/10/28 11:20:57;;;;;;;32.38;10.13;;;;;;;;;;4917373;29;20055;-77
2022/10/28 11:24:04;;;;;;;28.38;8.77;;;;;;;;;;4919322;29;20047;-79
2022/10/28 11:27:09;;;;;;;22.20;7.63;;;;;;;;;;4917445;29;20039;-77
2022/10/28 11:30:15;;;;;;;33.60;8.52;;;;;;;;;;4920393;29;20039;-78
2022/10/28 11:33:21;;;;;;;28.90;8.40;;;;;;;;;;4922056;29;20520;-80
2022/10/28 11:36:30;;;;;;;21.70;8.35;;;;;;;;;;4918760;29;20602;-77
2022/10/28 11:39:37;;;;;;;27.67;8.75;;;;;;;;;;4906035;29;20047;-79
2022/10/28 11:42:59;;;;;;;26.95;7.25;;;;;;;;;;4919062;29;20039;-77
2022/10/28 11:46:12;;;;;;;25.90;8.40;;;;;;;;;;4919590;29;20597;-77
2022/10/28 11:49:26;;;;;;;36.13;8.60;;;;;;;;;;4918697;29;20060;-77
2022/10/28 11:52:33;;;;;;;20.63;8.25;;;;;;;;;;4920653;29;20059;-77
2022/10/28 11:55:38;;;;;;;23.75;8.05;;;;;;;;;;4918049;29;20070;-77
2022/10/28 11:58:49;;;;;;;25.38;8.13;;;;;;;;;;4919170;29;20047;-77
2022/10/28 12:02:02;;;;;;;23.58;7.68;;;;;;;;;;4919234;29;20618;-78
2022/10/28 12:05:25;;;;;;;27.05;8.07;;;;;;;;;;4918811;29;20043;-77
2022/10/28 12:08:39;;;;;;;21.83;9.20;;;;;;;;;;4919235;29;20043;-78
2022/10/28 12:11:49;;;;;;;25.25;7.38;;;;;;;;;;4922178;29;20130;-79
2022/10/28 12:15:12;;;;;;;19.73;7.97;;;;;;;;;;4919069;29;20051;-78
2022/10/28 12:18:22;;;;;;;22.08;7.25;;;;;;;;;;4918153;29;20048;-77
2022/10/28 12:21:27;;;;;;;24.30;7.45;;;;;;;;;;4918322;29;20068;-77
2022/10/28 12:24:34;;;;;;;20.13;7.18;;;;;;;;;;4918037;29;20099;-79
2022/10/28 12:27:42;;;;;;;27.85;8.75;;;;;;;;;;4917930;29;20464;-78
2022/10/28 12:30:46;;;;;;;20.08;7.78;;;;;;;;;;4917637;29;20047;-75
2022/10/28 12:33:53;;;;;;;21.13;7.50;;;;;;;;;;4917657;29;20075;-73
2022/10/28 12:37:10;;;;;;;24.23;8.48;;;;;;;;;;4916800;29;20051;-76
2022/10/28 12:40:33;;;;;;;23.25;7.88;;;;;;;;;;4917746;29;20043;-76
2022/10/28 12:43:47;;;;;;;19.05;7.95;;;;;;;;;;4917896;29;20499;-80
2022/10/28 12:46:51;;;;;;;23.75;8.38;;;;;;;;;;4917961;29;20038;-77
2022/10/28 12:49:56;;;;;;;28.10;8.80;;;;;;;;;;4918283;29;20527;-71
2022/10/28 12:53:03;;;;;;;24.30;8.20;;;;;;;;;;4919534;29;20036;-71
2022/10/28 12:56:11;;;;;;;22.38;8.18;;;;;;;;;;4919696;29;20051;-79
2022/10/28 12:59:28;;;;;;;23.13;8.23;;;;;;;;;;4921576;29;20059;-72
2022/10/28 13:02:43;;;;;;;30.55;8.52;;;;;;;;;;4918182;29;20043;-69
2022/10/28 13:05:47;;;;;;;21.42;8.13;;;;;;;;;;4921103;29;20400;-78
2022/10/28 13:09:10;;;;;;;18.33;7.18;;;;;;;;;;4923778;29;20048;-75
2022/10/28 13:12:17;;;;;;;24.95;7.43;;;;;;;;;;4921305;29;20051;-75
2022/10/28 13:15:31;;;;;;;26.45;8.23;;;;;;;;;;4919797;29;20102;-74
2022/10/28 13:18:54;;;;;;;23.52;8.80;;;;;;;;;;4917985;29;20047;-71
2022/10/28 13:22:10;;;;;;;21.70;8.43;;;;;;;;;;4916324;29;20443;-73
2022/10/28 13:25:18;;;;;;;20.33;7.38;;;;;;;;;;4916978;29;20400;-73
2022/10/28 13:28:23;;;;;;;18.00;6.70;;;;;;;;;;4917512;29;20605;-73
2022/10/28 13:31:43;;;;;;;20.63;7.50;;;;;;;;;;4916638;29;20055;-73
2022/10/28 13:34:48;;;;;;;20.83;8.02;;;;;;;;;;4915569;29;20058;-76
2022/10/28 13:37:53;;;;;;;21.48;7.75;;;;;;;;;;4916168;29;20376;-71
2022/10/28 13:40:57;;;;;;;25.65;7.40;;;;;;;;;;4915320;29;20113;-74
2022/10/28 13:44:10;;;;;;;31.65;8.45;;;;;;;;;;4918172;29;20047;-73
2022/10/28 13:47:14;;;;;;;24.10;7.57;;;;;;;;;;4915391;29;20035;-76
2022/10/28 13:50:31;;;;;;;25.27;7.00;;;;;;;;;;4915490;29;20062;-77
2022/10/28 13:53:45;;;;;;;19.60;6.22;;;;;;;;;;4918217;29;20503;-77
2022/10/28 13:56:49;;;;;;;16.98;6.20;;;;;;;;;;4916300;29;20447;-74
2022/10/28 14:00:00;;;;;;;20.30;6.75;;;;;;;;;;4916399;29;20650;-77
2022/10/28 14:03:05;;;;;;;14.90;7.18;;;;;;;;;;4916128;29;20063;-78
2022/10/28 14:06:09;;;;;;;19.70;6.68;;;;;;;;;;4916525;29;20048;-76
2022/10/28 14:09:21;;;;;;;21.52;7.22;;;;;;;;;;4916545;29;20047;-79
2022/10/28 14:12:30;;;;;;;18.60;6.60;;;;;;;;;;4919043;29;20400;-75
2022/10/28 14:15:36;;;;;;;27.02;7.57;;;;;;;;;;4916069;29;20059;-79
2022/10/28 14:18:40;;;;;;;14.43;7.20;;;;;;;;;;4916743;29;20047;-72
2022/10/28 14:21:45;;;;;;;19.85;7.72;;;;;;;;;;4916528;29;20503;-75
2022/10/28 14:24:51;;;;;;;25.38;7.65;;;;;;;;;;4920401;29;20396;-75
2022/10/28 14:27:56;;;;;;;22.10;7.97;;;;;;;;;;4921373;29;20043;-76
2022/10/28 14:31:13;;;;;;;34.05;7.80;;;;;;;;;;4919282;29;20055;-76
2022/10/28 14:34:17;;;;;;;23.05;8.07;;;;;;;;;;4919966;29;20051;-75
2022/10/28 14:37:23;;;;;;;25.42;7.93;;;;;;;;;;4920526;29;20051;-74
2022/10/28 14:40:39;;;;;;;19.35;7.45;;;;;;;;;;4919544;29;20046;-75
2022/10/28 14:43:47;;;;;;;19.75;7.45;;;;;;;;;;4919630;29;20361;-75
2022/10/28 14:47:14;;;;;;;33.63;8.75;;;;;;;;;;4918908;29;20052;-75
2022/10/28 14:50:20;;;;;;;41.20;8.60;;;;;;;;;;4919695;29;20141;-76
2022/10/28 14:53:28;;;;;;;21.05;7.75;;;;;;;;;;4918955;29;20170;-75
2022/10/28 14:56:33;;;;;;;20.27;7.75;;;;;;;;;;4920204;29;20051;-75
2022/10/28 14:59:39;;;;;;;23.98;8.23;;;;;;;;;;4919170;29;20408;-75
2022/10/28 15:02:43;;;;;;;20.40;7.47;;;;;;;;;;4919221;29;20051;-74
2022/10/28 15:05:48;;;;;;;23.23;8.02;;;;;;;;;;4918903;29;20200;-76
2022/10/28 15:08:53;;;;;;;29.10;9.40;;;;;;;;;;4919603;29;20055;-76
2022/10/28 15:11:58;;;;;;;25.23;10.15;;;;;;;;;;4919829;29;20047;-76
2022/10/28 15:15:03;;;;;;;24.55;8.05;;;;;;;;;;4919928;29;20055;-75
2022/10/28 15:18:20;;;;;;;23.13;7.20;;;;;;;;;;4919430;29;20062;-76
2022/10/28 15:21:24;;;;;;;32.22;9.10;;;;;;;;;;4916708;29;20507;-72
2022/10/28 15:24:28;;;;;;;17.38;6.93;;;;;;;;;;4916638;29;20051;-71
2022/10/28 15:27:35;;;;;;;14.95;6.65;;;;;;;;;;4917542;29;20396;-70
2022/10/28 15:30:40;;;;;;;17.05;6.97;;;;;;;;;;4918555;29;20063;-78
2022/10/28 15:33:45;;;;;;;15.05;7.00;;;;;;;;;;4919885;29;20047;-78
2022/10/28 15:36:50;;;;;;;23.73;7.70;;;;;;;;;;4917510;29;20052;-72
2022/10/28 15:40:13;;;;;;;18.83;7.25;;;;;;;;;;4918727;29;20043;-80
2022/10/28 15:43:20;;;;;;;31.17;8.77;;;;;;;;;;4919367;29;20050;-73
2022/10/28 15:46:25;;;;;;;26.55;7.97;;;;;;;;;;4920326;29;20059;-80
2022/10/28 15:49:36;;;;;;;23.67;9.82;;;;;;;;;;4918607;29;20067;-77
2022/10/28 15:52:43;;;;;;;26.15;9.73;;;;;;;;;;4918315;29;20043;-74
2022/10/28 15:56:08;;;;;;;20.95;8.63;;;;;;;;;;4918607;29;20059;-73
2022/10/28 15:59:22;;;;;;;23.23;8.60;;;;;;;;;;4917401;29;20051;-72
2022/10/28 16:02:40;;;;;;;32.40;9.10;;;;;;;;;;4917463;29;20113;-71
2022/10/28 16:05:46;;;;;;;35.70;10.60;;;;;;;;;;4918192;29;20062;-75
2022/10/28 16:09:02;;;;;;;39.47;10.70;;;;;;;;;;4919102;29;20051;-76
2022/10/28 16:12:20;;;;;;;34.85;9.73;;;;;;;;;;4918299;29;20412;-75
2022/10/28 16:15:24;;;;;;;31.52;9.27;;;;;;;;;;4918763;29;20059;-78
2022/10/28 16:18:30;;;;;;;46.72;12.77;;;;;;;;;;4907097;29;20043;-74
2022/10/28 16:21:35;;;;;;;48.10;12.98;;;;;;;;;;4917187;29;20056;-73
2022/10/28 16:24:40;;;;;;;41.30;15.75;;;;;;;;;;4917583;29;20048;-78
2022/10/28 16:27:45;;;;;;;44.97;12.32;;;;;;;;;;4917245;29;20067;-76
2022/10/28 16:30:50;;;;;;;61.40;14.98;;;;;;;;;;4917020;29;20051;-74
2022/10/28 16:33:54;;;;;;;39.75;12.55;;;;;;;;;;4917262;29;20416;-76
2022/10/28 16:36:59;;;;;;;46.30;13.48;;;;;;;;;;4916813;29;20059;-76
2022/10/28 16:40:04;;;;;;;40.83;10.77;;;;;;;;;;4917171;29;20051;-76
2022/10/28 16:43:16;;;;;;;32.67;10.00;;;;;;;;;;4916970;29;20059;-75
2022/10/28 16:46:20;;;;;;;54.22;12.25;;;;;;;;;;4916484;29;20051;-72
2022/10/28 16:49:25;;;;;;;51.60;11.77;;;;;;;;;;4915401;29;20055;-69
2022/10/28 16:52:29;;;;;;;47.63;11.68;;;;;;;;;;4915939;29;20047;-69
2022/10/28 16:55:33;;;;;;;51.95;11.05;;;;;;;;;;4914722;29;20055;-68
2022/10/28 16:58:38;;;;;;;46.90;11.65;;;;;;;;;;4915722;29;20047;-68
2022/10/28 17:01:42;;;;;;;45.65;12.20;;;;;;;;;;4915770;29;20043;-70
2022/10/28 17:04:47;;;;;;;70.15;13.10;;;;;;;;;;4915781;29;20400;-68
2022/10/28 17:07:56;;;;;;;47.75;13.75;;;;;;;;;;4915388;29;20043;-68
2022/10/28 17:11:02;;;;;;;56.72;12.93;;;;;;;;;;4915722;29;20060;-68
2022/10/28 17:14:06;;;;;;;48.55;13.68;;;;;;;;;;4915107;29;20401;-69
2022/10/28 17:17:11;;;;;;;52.40;13.15;;;;;;;;;;4915243;29;20059;-68
2022/10/28 17:20:15;;;;;;;63.38;13.73;;;;;;;;;;4915069;29;20043;-68
2022/10/28 17:23:19;;;;;;;51.83;13.98;;;;;;;;;;4914959;29;20047;-68
2022/10/28 17:26:23;;;;;;;58.58;12.93;;;;;;;;;;4915154;29;20039;-68
2022/10/28 17:29:28;;;;;;;71.57;14.77;;;;;;;;;;4914202;29;20047;-69
2022/10/28 17:32:32;;;;;;;69.20;15.15;;;;;;;;;;4915026;29;20047;-69
2022/10/28 17:35:36;;;;;;;48.08;12.90;;;;;;;;;;4915065;29;20055;-69
2022/10/28 17:38:40;;;;;;;52.95;14.00;;;;;;;;;;4915337;29;20043;-69
2022/10/28 17:41:45;;;;;;;53.30;13.90;;;;;;;;;;4915380;29;20416;-69
2022/10/28 17:44:49;;;;;;;43.85;12.82;;;;;;;;;;4915076;29;20055;-69
2022/10/28 17:47:54;;;;;;;51.33;14.15;;;;;;;;;;4914789;29;20051;-69
2022/10/28 17:50:58;;;;;;;48.63;13.88;;;;;;;;;;4914894;29;20050;-69
2022/10/28 17:54:06;;;;;;;45.28;13.10;;;;;;;;;;4914866;29;20055;-69
2022/10/28 17:57:29;;;;;;;54.47;13.10;;;;;;;;;;4914561;29;20055;-68
2022/10/28 18:00:33;;;;;;;48.83;17.20;;;;;;;;;;4914942;29;20063;-68
2022/10/28 18:03:38;;;;;;;71.43;16.70;;;;;;;;;;4914805;29;20047;-68
2022/10/28 18:06:42;;;;;;;51.88;14.68;;;;;;;;;;4914140;29;20060;-68
2022/10/28 18:09:46;;;;;;;46.38;13.25;;;;;;;;;;4914730;29;20035;-68
2022/10/28 18:12:50;;;;;;;53.13;15.55;;;;;;;;;;4913811;29;20059;-67
2022/10/28 18:15:55;;;;;;;43.80;14.23;;;;;;;;;;4914535;29;20059;-68